createdAt,value
2023-05-19T00:00:08.487Z,30.57
2023-05-19T00:00:38.598Z,30.57
2023-05-19T00:01:08.682Z,30.57
2023-05-19T00:01:38.764Z,30.58
2023-05-19T00:02:08.904Z,30.60
2023-05-19T00:02:39.038Z,30.57
2023-05-19T00:03:09.335Z,30.58
2023-05-19T00:03:38.968Z,30.61
2023-05-19T00:04:08.969Z,30.60
2023-05-19T00:04:39.039Z,30.58
2023-05-19T00:05:09.120Z,30.60
2023-05-19T00:05:39.280Z,30.61
2023-05-19T00:06:09.285Z,30.57
2023-05-19T00:06:39.261Z,30.58
2023-05-19T00:07:09.353Z,30.60
2023-05-19T00:07:39.443Z,30.58
2023-05-19T00:08:09.515Z,30.58
2023-05-19T00:08:39.601Z,30.56
2023-05-19T00:09:09.676Z,30.53
2023-05-19T00:09:39.770Z,30.60
2023-05-19T00:10:09.844Z,30.60
2023-05-19T00:10:39.971Z,30.57
2023-05-19T00:11:09.976Z,30.55
2023-05-19T00:12:10.065Z,30.53
2023-05-19T00:12:40.067Z,30.56
2023-05-19T00:13:40.145Z,30.53
2023-05-19T00:14:10.135Z,30.58
2023-05-19T00:14:40.261Z,30.52
2023-05-19T00:15:10.261Z,30.59
2023-05-19T00:15:40.426Z,30.61
2023-05-19T00:16:10.429Z,30.58
2023-05-19T00:16:40.428Z,30.61
2023-05-19T00:17:10.424Z,30.55
2023-05-19T00:18:10.508Z,30.55
2023-05-19T00:18:40.546Z,30.55
2023-05-19T00:19:10.840Z,30.55
2023-05-19T00:19:40.613Z,30.53
2023-05-19T00:20:10.716Z,30.55
2023-05-19T00:20:40.725Z,30.53
2023-05-19T00:21:10.736Z,30.53
2023-05-19T00:22:10.804Z,30.55
2023-05-19T00:22:40.933Z,30.55
2023-05-19T00:23:10.962Z,30.50
2023-05-19T00:23:40.943Z,30.55
2023-05-19T00:24:10.971Z,30.53
2023-05-19T00:24:40.957Z,30.56
2023-05-19T00:25:11.038Z,30.55
2023-05-19T00:25:41.038Z,30.52
2023-05-19T00:26:11.068Z,30.55
2023-05-19T00:26:41.050Z,30.50
2023-05-19T00:27:11.171Z,30.50
2023-05-19T00:27:41.157Z,30.50
2023-05-19T00:28:11.274Z,30.52
2023-05-19T00:28:41.398Z,30.49
2023-05-19T00:29:11.388Z,30.53
2023-05-19T00:30:11.501Z,30.50
2023-05-19T00:30:41.497Z,30.56
2023-05-19T00:31:11.523Z,30.52
2023-05-19T00:31:41.554Z,30.49
2023-05-19T00:32:11.609Z,30.49
2023-05-19T00:32:41.654Z,30.49
2023-05-19T00:33:11.642Z,30.49
2023-05-19T00:33:41.612Z,30.59
2023-05-19T00:34:11.613Z,30.51
2023-05-19T00:34:41.616Z,30.53
2023-05-19T00:35:11.639Z,30.50
2023-05-19T00:36:11.718Z,30.53
2023-05-19T00:36:41.699Z,30.46
2023-05-19T00:37:41.771Z,30.51
2023-05-19T00:38:11.893Z,30.56
2023-05-19T00:38:42.016Z,30.59
2023-05-19T00:39:12.242Z,30.56
2023-05-19T00:39:42.225Z,30.54
2023-05-19T00:40:42.311Z,30.54
2023-05-19T00:41:12.424Z,30.55
2023-05-19T00:41:42.696Z,30.59
2023-05-19T00:42:12.545Z,30.50
2023-05-19T00:43:12.738Z,30.53
2023-05-19T00:43:42.749Z,30.53
2023-05-19T00:44:12.748Z,30.51
2023-05-19T00:45:12.819Z,30.48
2023-05-19T00:45:42.940Z,30.53
2023-05-19T00:46:13.148Z,30.49
2023-05-19T00:46:43.176Z,30.53
2023-05-19T00:47:13.182Z,30.53
2023-05-19T00:47:43.366Z,30.51
2023-05-19T00:48:13.376Z,30.51
2023-05-19T00:48:43.386Z,30.51
2023-05-19T00:49:43.474Z,30.56
2023-05-19T00:50:13.577Z,30.51
2023-05-19T00:50:43.575Z,30.51
2023-05-19T00:51:13.697Z,30.49
2023-05-19T00:51:43.812Z,30.53
2023-05-19T00:52:13.819Z,30.49
2023-05-19T00:53:13.908Z,30.48
2023-05-19T00:53:43.902Z,30.47
2023-05-19T00:54:14.020Z,30.48
2023-05-19T00:54:44.011Z,30.51
2023-05-19T00:55:44.156Z,30.49
2023-05-19T00:56:14.127Z,30.48
2023-05-19T00:56:44.241Z,30.51
2023-05-19T00:57:14.259Z,30.45
2023-05-19T00:57:44.248Z,30.45
2023-05-19T00:58:44.322Z,30.50
2023-05-19T00:59:14.318Z,30.48
2023-05-19T00:59:44.434Z,30.51
2023-05-19T01:00:14.558Z,30.46
2023-05-19T01:00:44.678Z,30.48
2023-05-19T01:01:14.828Z,30.54
2023-05-19T01:01:44.826Z,30.45
2023-05-19T01:02:14.921Z,30.51
2023-05-19T01:02:45.187Z,30.51
2023-05-19T01:03:15.185Z,30.51
2023-05-19T01:03:45.368Z,30.51
2023-05-19T01:04:15.241Z,30.54
2023-05-19T01:04:45.328Z,30.49
2023-05-19T01:05:15.419Z,30.49
2023-05-19T01:05:45.514Z,30.43
2023-05-19T01:06:15.624Z,30.48
2023-05-19T01:06:45.711Z,30.49
2023-05-19T01:07:15.813Z,30.51
2023-05-19T01:07:45.902Z,30.52
2023-05-19T01:08:15.982Z,30.49
2023-05-19T01:08:46.067Z,30.46
2023-05-19T01:09:16.147Z,30.46
2023-05-19T01:09:46.226Z,30.46
2023-05-19T01:10:16.316Z,30.43
2023-05-19T01:10:46.416Z,30.54
2023-05-19T01:11:16.542Z,30.48
2023-05-19T01:11:46.549Z,30.48
2023-05-19T01:12:16.666Z,30.49
2023-05-19T01:12:46.686Z,30.52
2023-05-19T01:13:16.716Z,30.48
2023-05-19T01:13:46.735Z,30.45
2023-05-19T01:14:16.830Z,30.46
2023-05-19T01:14:46.950Z,30.49
2023-05-19T01:15:17.078Z,30.49
2023-05-19T01:15:47.185Z,30.46
2023-05-19T01:16:17.330Z,30.49
2023-05-19T01:16:47.350Z,30.43
2023-05-19T01:17:17.368Z,30.43
2023-05-19T01:17:47.543Z,30.49
2023-05-19T01:18:17.545Z,30.47
2023-05-19T01:18:47.739Z,30.44
2023-05-19T01:19:17.820Z,30.49
2023-05-19T01:19:47.750Z,30.50
2023-05-19T01:20:17.860Z,30.50
2023-05-19T01:20:48.010Z,30.43
2023-05-19T01:21:18.007Z,30.47
2023-05-19T01:22:18.077Z,30.46
2023-05-19T01:22:48.193Z,30.47
2023-05-19T01:23:18.331Z,30.47
2023-05-19T01:23:48.432Z,30.43
2023-05-19T01:24:18.552Z,30.46
2023-05-19T01:24:48.556Z,30.44
2023-05-19T01:25:48.632Z,30.45
2023-05-19T01:26:18.637Z,30.46
2023-05-19T01:26:48.744Z,30.46
2023-05-19T01:27:18.860Z,30.49
2023-05-19T01:27:49.006Z,30.47
2023-05-19T01:28:19.098Z,30.47
2023-05-19T01:28:49.216Z,30.44
2023-05-19T01:29:19.330Z,30.46
2023-05-19T01:29:49.474Z,30.43
2023-05-19T01:30:19.536Z,30.47
2023-05-19T01:30:49.547Z,30.44
2023-05-19T01:31:19.581Z,30.43
2023-05-19T01:31:49.599Z,30.47
2023-05-19T01:32:19.610Z,30.49
2023-05-19T01:32:49.633Z,30.44
2023-05-19T01:33:19.623Z,30.41
2023-05-19T01:34:19.681Z,30.44
2023-05-19T01:34:49.795Z,30.44
2023-05-19T01:35:19.921Z,30.42
2023-05-19T01:35:49.917Z,30.44
2023-05-19T01:36:19.936Z,30.47
2023-05-19T01:36:50.037Z,30.43
2023-05-19T01:37:20.034Z,30.41
2023-05-19T01:38:20.162Z,30.42
2023-05-19T01:38:50.151Z,30.46
2023-05-19T01:39:20.258Z,30.48
2023-05-19T01:39:50.260Z,30.44
2023-05-19T01:40:20.278Z,30.41
2023-05-19T01:40:50.271Z,30.48
2023-05-19T01:41:50.331Z,30.42
2023-05-19T01:42:20.451Z,30.48
2023-05-19T01:42:50.564Z,30.41
2023-05-19T01:43:20.773Z,30.46
2023-05-19T01:43:50.756Z,30.41
2023-05-19T01:44:50.817Z,30.47
2023-05-19T01:45:20.932Z,30.46
2023-05-19T01:45:51.077Z,30.46
2023-05-19T01:46:21.092Z,30.44
2023-05-19T01:46:51.107Z,30.41
2023-05-19T01:47:21.113Z,30.44
2023-05-19T01:47:51.143Z,30.46
2023-05-19T01:48:21.130Z,30.42
2023-05-19T01:48:51.240Z,30.42
2023-05-19T01:49:21.274Z,30.48
2023-05-19T01:49:51.271Z,30.39
2023-05-19T01:50:51.391Z,30.41
2023-05-19T01:51:21.360Z,30.47
2023-05-19T01:51:51.476Z,30.41
2023-05-19T01:52:21.592Z,30.40
2023-05-19T01:52:51.715Z,30.46
2023-05-19T01:53:21.731Z,30.45
2023-05-19T01:53:51.851Z,30.46
2023-05-19T01:54:21.878Z,30.48
2023-05-19T01:54:51.845Z,30.47
2023-05-19T01:55:21.965Z,30.41
2023-05-19T01:55:51.983Z,30.44
2023-05-19T01:56:22.075Z,30.42
2023-05-19T01:56:52.197Z,30.50
2023-05-19T01:57:22.330Z,30.47
2023-05-19T01:57:52.425Z,30.45
2023-05-19T01:58:22.435Z,30.44
2023-05-19T01:58:52.507Z,30.41
2023-05-19T01:59:22.465Z,30.39
2023-05-19T01:59:52.475Z,30.44
2023-05-19T02:00:22.593Z,30.47
2023-05-19T02:00:52.737Z,30.41
2023-05-19T02:01:22.726Z,30.46
2023-05-19T02:01:52.808Z,30.42
2023-05-19T02:02:22.869Z,30.42
2023-05-19T02:02:53.009Z,30.40
2023-05-19T02:03:23.001Z,30.39
2023-05-19T02:03:53.101Z,30.47
2023-05-19T02:04:23.216Z,30.47
2023-05-19T02:04:53.316Z,30.40
2023-05-19T02:05:23.373Z,30.42
2023-05-19T02:05:53.473Z,30.41
2023-05-19T02:06:23.541Z,30.40
2023-05-19T02:06:53.636Z,30.40
2023-05-19T02:07:23.699Z,30.36
2023-05-19T02:07:53.794Z,30.39
2023-05-19T02:08:23.880Z,30.36
2023-05-19T02:08:53.952Z,30.41
2023-05-19T02:09:24.032Z,30.45
2023-05-19T02:09:54.115Z,30.43
2023-05-19T02:10:24.191Z,30.39
2023-05-19T02:10:54.300Z,30.36
2023-05-19T02:11:24.416Z,30.39
2023-05-19T02:11:54.539Z,30.39
2023-05-19T02:12:24.535Z,30.45
2023-05-19T02:12:54.662Z,30.40
2023-05-19T02:13:24.658Z,30.39
2023-05-19T02:13:54.795Z,30.42
2023-05-19T02:14:24.891Z,30.45
2023-05-19T02:14:54.881Z,30.43
2023-05-19T02:15:55.001Z,30.45
2023-05-19T02:16:25.037Z,30.39
2023-05-19T02:16:55.068Z,30.45
2023-05-19T02:17:25.089Z,30.48
2023-05-19T02:17:55.110Z,30.43
2023-05-19T02:18:25.102Z,30.46
2023-05-19T02:18:55.100Z,30.35
2023-05-19T02:19:25.110Z,30.42
2023-05-19T02:19:55.142Z,30.42
2023-05-19T02:20:25.146Z,30.35
2023-05-19T02:21:25.220Z,30.43
2023-05-19T02:21:55.368Z,30.43
2023-05-19T02:22:25.367Z,30.40
2023-05-19T02:22:55.367Z,30.42
2023-05-19T02:23:25.362Z,30.42
2023-05-19T02:24:25.435Z,30.38
2023-05-19T02:24:55.564Z,30.40
2023-05-19T02:25:25.565Z,30.34
2023-05-19T02:25:55.679Z,30.43
2023-05-19T02:26:25.793Z,30.37
2023-05-19T02:26:55.816Z,30.40
2023-05-19T02:27:25.802Z,30.39
2023-05-19T02:27:55.798Z,30.38
2023-05-19T02:28:55.867Z,30.34
2023-05-19T02:29:25.894Z,30.41
2023-05-19T02:30:25.944Z,30.38
2023-05-19T02:30:56.068Z,30.37
2023-05-19T02:31:26.095Z,30.35
2023-05-19T02:31:56.117Z,30.32
2023-05-19T02:32:26.133Z,30.35
2023-05-19T02:32:56.147Z,30.38
2023-05-19T02:33:26.214Z,30.34
2023-05-19T02:33:56.200Z,30.37
2023-05-19T02:34:26.203Z,30.37
2023-05-19T02:34:56.316Z,30.41
2023-05-19T02:35:26.320Z,30.34
2023-05-19T02:35:56.338Z,30.40
2023-05-19T02:36:56.438Z,30.35
2023-05-19T02:37:26.485Z,30.41
2023-05-19T02:37:56.489Z,30.40
2023-05-19T02:38:26.603Z,30.40
2023-05-19T02:38:56.725Z,30.36
2023-05-19T02:39:26.838Z,30.40
2023-05-19T02:39:56.832Z,30.38
2023-05-19T02:40:26.841Z,30.34
2023-05-19T02:41:26.920Z,30.34
2023-05-19T02:41:57.028Z,30.35
2023-05-19T02:42:27.144Z,30.37
2023-05-19T02:42:57.144Z,30.32
2023-05-19T02:43:27.272Z,30.37
2023-05-19T02:43:57.381Z,30.35
2023-05-19T02:44:27.373Z,30.37
2023-05-19T02:44:57.400Z,30.41
2023-05-19T02:45:27.378Z,30.36
2023-05-19T02:46:27.514Z,30.38
2023-05-19T02:46:57.497Z,30.38
2023-05-19T02:47:27.598Z,30.36
2023-05-19T02:47:57.651Z,30.41
2023-05-19T02:48:27.647Z,30.40
2023-05-19T02:48:57.768Z,30.33
2023-05-19T02:49:27.769Z,30.38
2023-05-19T02:50:27.842Z,30.35
2023-05-19T02:50:57.836Z,30.38
2023-05-19T02:51:27.960Z,30.38
2023-05-19T02:51:58.072Z,30.44
2023-05-19T02:52:28.194Z,30.36
2023-05-19T02:52:58.344Z,30.38
2023-05-19T02:53:28.325Z,30.36
2023-05-19T02:53:58.317Z,30.39
2023-05-19T02:54:28.329Z,30.35
2023-05-19T02:54:58.320Z,30.39
2023-05-19T02:55:58.415Z,30.36
2023-05-19T02:56:28.526Z,30.38
2023-05-19T02:56:58.644Z,30.36
2023-05-19T02:57:28.772Z,30.38
2023-05-19T02:57:58.883Z,30.39
2023-05-19T02:58:28.888Z,30.44
2023-05-19T02:59:28.961Z,30.40
2023-05-19T02:59:58.952Z,30.35
2023-05-19T03:00:29.115Z,30.43
2023-05-19T03:00:59.114Z,30.36
2023-05-19T03:01:29.239Z,30.38
2023-05-19T03:01:59.265Z,30.31
2023-05-19T03:02:29.277Z,30.35
2023-05-19T03:02:59.315Z,30.36
2023-05-19T03:03:29.366Z,30.38
2023-05-19T03:03:59.420Z,30.35
2023-05-19T03:04:29.439Z,30.30
2023-05-19T03:04:59.518Z,30.35
2023-05-19T03:05:29.603Z,30.33
2023-05-19T03:05:59.684Z,30.35
2023-05-19T03:06:29.757Z,30.29
2023-05-19T03:06:59.844Z,30.30
2023-05-19T03:07:29.922Z,30.33
2023-05-19T03:08:00.042Z,30.29
2023-05-19T03:08:30.017Z,30.35
2023-05-19T03:09:00.132Z,30.30
2023-05-19T03:09:30.193Z,30.35
2023-05-19T03:10:00.270Z,30.25
2023-05-19T03:10:30.581Z,30.33
2023-05-19T03:11:00.403Z,30.33
2023-05-19T03:11:30.402Z,30.31
2023-05-19T03:12:30.465Z,30.30
2023-05-19T03:13:00.470Z,30.36
2023-05-19T03:13:30.479Z,30.34
2023-05-19T03:14:00.588Z,30.36
2023-05-19T03:14:30.700Z,30.27
2023-05-19T03:15:00.865Z,30.29
2023-05-19T03:15:30.793Z,30.35
2023-05-19T03:16:00.895Z,30.36
2023-05-19T03:16:31.056Z,30.31
2023-05-19T03:17:01.130Z,30.30
2023-05-19T03:17:31.215Z,30.31
2023-05-19T03:18:01.283Z,30.31
2023-05-19T03:18:31.279Z,30.30
2023-05-19T03:19:01.405Z,30.29
2023-05-19T03:19:31.407Z,30.33
2023-05-19T03:20:01.407Z,30.35
2023-05-19T03:20:31.695Z,30.33
2023-05-19T03:21:01.640Z,30.34
2023-05-19T03:21:31.637Z,30.30
2023-05-19T03:22:31.723Z,30.33
2023-05-19T03:23:01.717Z,30.36
2023-05-19T03:23:31.842Z,30.33
2023-05-19T03:24:01.955Z,30.32
2023-05-19T03:24:32.070Z,30.34
2023-05-19T03:25:02.069Z,30.32
2023-05-19T03:25:32.188Z,30.36
2023-05-19T03:26:02.181Z,30.31
2023-05-19T03:26:32.311Z,30.36
2023-05-19T03:27:02.301Z,30.36
2023-05-19T03:27:32.413Z,30.30
2023-05-19T03:28:02.541Z,30.28
2023-05-19T03:28:32.653Z,30.34
2023-05-19T03:29:02.679Z,30.31
2023-05-19T03:29:32.809Z,30.29
2023-05-19T03:30:05.681Z,30.31
2023-05-19T03:30:33.099Z,30.36
2023-05-19T03:31:02.927Z,30.30
2023-05-19T03:31:32.901Z,30.29
2023-05-19T03:32:02.982Z,30.34
2023-05-19T03:32:33.215Z,30.34
2023-05-19T03:33:03.197Z,30.37
2023-05-19T03:33:33.212Z,30.37
2023-05-19T03:34:03.155Z,30.38
2023-05-19T03:34:33.168Z,30.40
2023-05-19T03:35:03.167Z,30.43
2023-05-19T03:36:03.248Z,30.47
2023-05-19T03:36:33.243Z,30.52
2023-05-19T03:37:33.317Z,30.46
2023-05-19T03:38:03.438Z,30.53
2023-05-19T03:38:33.424Z,30.49
2023-05-19T03:39:33.494Z,30.50
2023-05-19T03:40:03.610Z,30.52
2023-05-19T03:40:33.880Z,30.49
2023-05-19T03:41:03.631Z,30.56
2023-05-19T03:41:33.626Z,30.58
2023-05-19T03:42:03.622Z,30.60
2023-05-19T03:43:03.701Z,30.60
2023-05-19T03:43:33.699Z,30.55
2023-05-19T03:44:33.790Z,30.51
2023-05-19T03:45:03.792Z,30.45
2023-05-19T03:45:33.833Z,30.43
2023-05-19T03:46:03.963Z,30.46
2023-05-19T03:46:33.922Z,30.43
2023-05-19T03:47:03.886Z,30.39
2023-05-19T03:47:34.015Z,30.37
2023-05-19T03:48:04.054Z,30.28
2023-05-19T03:48:34.045Z,30.33
2023-05-19T03:49:04.164Z,30.30
2023-05-19T03:49:34.279Z,30.30
2023-05-19T03:50:04.292Z,30.31
2023-05-19T03:50:34.565Z,30.34
2023-05-19T03:51:04.388Z,30.27
2023-05-19T03:51:34.502Z,30.24
2023-05-19T03:52:04.492Z,30.28
2023-05-19T03:52:34.623Z,30.31
2023-05-19T03:53:04.735Z,30.25
2023-05-19T03:53:34.847Z,30.25
2023-05-19T03:54:04.852Z,30.29
2023-05-19T03:54:34.980Z,30.16
2023-05-19T03:55:04.958Z,30.22
2023-05-19T03:55:34.949Z,30.22
2023-05-19T03:56:05.069Z,30.22
2023-05-19T03:56:35.178Z,30.22
2023-05-19T03:57:05.173Z,30.21
2023-05-19T03:57:35.300Z,30.25
2023-05-19T03:58:05.417Z,30.19
2023-05-19T03:58:35.525Z,30.18
2023-05-19T03:59:05.536Z,30.17
2023-05-19T03:59:35.579Z,30.22
2023-05-19T04:00:05.561Z,30.19
2023-05-19T04:00:35.941Z,30.20
2023-05-19T04:01:05.698Z,30.19
2023-05-19T04:01:35.777Z,30.15
2023-05-19T04:02:05.893Z,30.16
2023-05-19T04:02:36.006Z,30.19
2023-05-19T04:03:06.093Z,30.16
2023-05-19T04:03:36.141Z,30.19
2023-05-19T04:04:06.160Z,30.18
2023-05-19T04:04:36.181Z,30.15
2023-05-19T04:05:06.155Z,30.15
2023-05-19T04:05:36.239Z,30.16
2023-05-19T04:06:06.319Z,30.13
2023-05-19T04:06:36.395Z,30.15
2023-05-19T04:07:06.471Z,30.12
2023-05-19T04:07:36.558Z,30.07
2023-05-19T04:08:06.657Z,30.09
2023-05-19T04:08:36.729Z,30.07
2023-05-19T04:09:06.807Z,30.10
2023-05-19T04:09:36.895Z,30.15
2023-05-19T04:10:06.969Z,30.15
2023-05-19T04:10:37.065Z,30.16
2023-05-19T04:11:07.052Z,30.15
2023-05-19T04:12:07.138Z,30.10
2023-05-19T04:12:37.204Z,30.12
2023-05-19T04:13:07.183Z,30.09
2023-05-19T04:13:37.179Z,30.13
2023-05-19T04:14:07.292Z,30.13
2023-05-19T04:14:37.416Z,30.14
2023-05-19T04:15:07.535Z,30.09
2023-05-19T04:15:37.750Z,30.10
2023-05-19T04:16:07.766Z,30.06
2023-05-19T04:16:37.786Z,30.10
2023-05-19T04:17:07.790Z,30.06
2023-05-19T04:17:37.937Z,30.13
2023-05-19T04:18:07.952Z,30.10
2023-05-19T04:18:38.020Z,30.07
2023-05-19T04:19:08.054Z,30.09
2023-05-19T04:19:37.992Z,30.06
2023-05-19T04:20:08.118Z,30.09
2023-05-19T04:20:38.234Z,30.07
2023-05-19T04:21:08.230Z,30.09
2023-05-19T04:22:08.302Z,30.15
2023-05-19T04:22:38.440Z,30.12
2023-05-19T04:23:08.429Z,30.16
2023-05-19T04:24:08.507Z,30.13
2023-05-19T04:24:38.499Z,30.19
2023-05-19T04:25:38.596Z,30.18
2023-05-19T04:26:08.592Z,30.15
2023-05-19T04:27:08.676Z,30.11
2023-05-19T04:27:38.841Z,30.09
2023-05-19T04:28:08.848Z,30.09
2023-05-19T04:28:38.975Z,30.06
2023-05-19T04:29:09.000Z,30.04
2023-05-19T04:29:39.121Z,30.08
2023-05-19T04:30:09.245Z,30.01
2023-05-19T04:30:39.236Z,30.01
2023-05-19T04:31:09.377Z,30.01
2023-05-19T04:31:39.427Z,30.00
2023-05-19T04:32:09.462Z,30.01
2023-05-19T04:32:39.454Z,30.00
2023-05-19T04:33:09.550Z,30.01
2023-05-19T04:33:39.533Z,29.98
2023-05-19T04:34:09.648Z,29.97
2023-05-19T04:34:39.765Z,30.00
2023-05-19T04:35:09.775Z,30.01
2023-05-19T04:35:39.884Z,30.02
2023-05-19T04:36:10.009Z,29.99
2023-05-19T04:36:40.009Z,29.99
2023-05-19T04:37:09.996Z,30.01
2023-05-19T04:37:40.112Z,29.94
2023-05-19T04:38:10.106Z,29.97
2023-05-19T04:39:10.210Z,29.97
2023-05-19T04:39:40.325Z,29.97
2023-05-19T04:40:10.332Z,29.99
2023-05-19T04:40:40.452Z,29.95
2023-05-19T04:41:10.648Z,29.89
2023-05-19T04:41:40.691Z,29.92
2023-05-19T04:42:10.660Z,30.00
2023-05-19T04:42:40.777Z,29.96
2023-05-19T04:43:10.893Z,29.95
2023-05-19T04:43:41.016Z,29.97
2023-05-19T04:44:11.135Z,29.95
2023-05-19T04:44:41.130Z,29.95
2023-05-19T04:45:41.225Z,29.94
2023-05-19T04:46:13.200Z,29.94
2023-05-19T04:46:41.371Z,29.95
2023-05-19T04:47:11.572Z,29.97
2023-05-19T04:47:41.509Z,29.94
2023-05-19T04:48:11.517Z,29.94
2023-05-19T04:48:41.717Z,30.01
2023-05-19T04:49:11.739Z,30.01
2023-05-19T04:49:41.743Z,29.90
2023-05-19T04:50:11.861Z,29.95
2023-05-19T04:50:41.983Z,29.95
2023-05-19T04:51:11.976Z,29.94
2023-05-19T04:51:42.099Z,29.95
2023-05-19T04:52:12.215Z,29.91
2023-05-19T04:52:42.341Z,29.97
2023-05-19T04:53:12.326Z,29.91
2023-05-19T04:53:42.449Z,29.97
2023-05-19T04:54:12.451Z,29.92
2023-05-19T04:54:42.449Z,29.95
2023-05-19T04:55:42.529Z,29.92
2023-05-19T04:56:12.641Z,29.92
2023-05-19T04:56:42.763Z,29.98
2023-05-19T04:57:12.874Z,29.97
2023-05-19T04:57:42.992Z,29.97
2023-05-19T04:58:13.110Z,29.98
2023-05-19T04:58:43.107Z,29.94
2023-05-19T04:59:13.228Z,29.95
2023-05-19T04:59:43.237Z,29.97
2023-05-19T05:00:43.275Z,29.98
2023-05-19T05:01:13.352Z,30.00
2023-05-19T05:01:43.571Z,29.92
2023-05-19T05:02:13.625Z,29.92
2023-05-19T05:02:43.658Z,29.95
2023-05-19T05:03:13.745Z,29.95
2023-05-19T05:03:43.720Z,29.98
2023-05-19T05:04:13.660Z,30.00
2023-05-19T05:04:43.699Z,29.93
2023-05-19T05:05:13.777Z,29.96
2023-05-19T05:05:43.855Z,29.99
2023-05-19T05:06:13.925Z,29.98
2023-05-19T05:06:44.020Z,30.01
2023-05-19T05:07:14.100Z,29.98
2023-05-19T05:07:44.177Z,29.98
2023-05-19T05:08:14.253Z,30.01
2023-05-19T05:08:44.348Z,29.98
2023-05-19T05:09:14.423Z,30.05
2023-05-19T05:09:44.505Z,30.08
2023-05-19T05:10:14.589Z,30.05
2023-05-19T05:10:44.629Z,30.07
2023-05-19T05:11:14.740Z,30.02
2023-05-19T05:11:44.892Z,30.02
2023-05-19T05:12:14.872Z,30.07
2023-05-19T05:12:44.983Z,30.02
2023-05-19T05:13:14.990Z,30.07
2023-05-19T05:14:15.069Z,30.13
2023-05-19T05:14:45.069Z,30.16
2023-05-19T05:15:45.219Z,30.12
2023-05-19T05:16:15.200Z,30.09
2023-05-19T05:16:45.303Z,30.11
2023-05-19T05:17:15.293Z,30.05
2023-05-19T05:17:45.460Z,30.12
2023-05-19T05:18:15.476Z,30.07
2023-05-19T05:18:45.475Z,30.05
2023-05-19T05:19:15.594Z,30.10
2023-05-19T05:19:45.699Z,30.02
2023-05-19T05:20:15.839Z,30.08
2023-05-19T05:20:45.816Z,30.05
2023-05-19T05:21:15.942Z,30.05
2023-05-19T05:21:45.937Z,30.07
2023-05-19T05:22:46.021Z,30.04
2023-05-19T05:23:16.004Z,30.07
2023-05-19T05:23:46.121Z,30.07
2023-05-19T05:24:16.238Z,30.07
2023-05-19T05:24:46.240Z,30.10
2023-05-19T05:25:46.225Z,30.07
2023-05-19T05:26:16.216Z,30.08
2023-05-19T05:26:46.333Z,30.08
2023-05-19T05:27:16.470Z,30.08
2023-05-19T05:27:46.451Z,30.16
2023-05-19T05:28:46.570Z,30.19
2023-05-19T05:29:16.574Z,30.19
2023-05-19T05:30:16.630Z,30.11
2023-05-19T05:30:46.627Z,30.14
2023-05-19T05:31:46.717Z,30.16
2023-05-19T05:32:16.870Z,30.13
2023-05-19T05:32:46.881Z,30.13
2023-05-19T05:33:17.012Z,30.13
2023-05-19T05:33:46.826Z,30.20
2023-05-19T05:34:46.917Z,30.13
2023-05-19T05:35:17.044Z,30.11
2023-05-19T05:35:47.040Z,30.13
2023-05-19T05:36:17.150Z,30.11
2023-05-19T05:36:47.263Z,30.19
2023-05-19T05:37:17.276Z,30.17
2023-05-19T05:37:47.393Z,30.13
2023-05-19T05:38:17.511Z,30.25
2023-05-19T05:38:47.623Z,30.22
2023-05-19T05:39:17.741Z,30.23
2023-05-19T05:39:47.741Z,30.22
2023-05-19T05:40:17.853Z,30.25
2023-05-19T05:40:47.852Z,30.26
2023-05-19T05:41:17.963Z,30.26
2023-05-19T05:41:48.082Z,30.18
2023-05-19T05:42:18.198Z,30.24
2023-05-19T05:42:48.198Z,30.20
2023-05-19T05:43:18.310Z,30.17
2023-05-19T05:43:48.429Z,30.20
2023-05-19T05:44:18.557Z,30.23
2023-05-19T05:44:48.542Z,30.24
2023-05-19T05:45:18.652Z,30.21
2023-05-19T05:45:48.848Z,30.18
2023-05-19T05:46:18.876Z,30.23
2023-05-19T05:46:48.884Z,30.21
2023-05-19T05:47:18.882Z,30.18
2023-05-19T05:48:19.019Z,30.29
2023-05-19T05:48:48.996Z,30.27
2023-05-19T05:49:49.446Z,30.31
2023-05-19T05:50:19.096Z,30.32
2023-05-19T05:50:49.110Z,30.28
2023-05-19T05:51:19.107Z,30.29
2023-05-19T05:52:04.363Z,30.34
2023-05-19T05:52:19.109Z,30.33
2023-05-19T05:52:49.122Z,30.35
2023-05-19T05:53:19.125Z,30.29
2023-05-19T05:53:49.233Z,30.41
2023-05-19T05:54:19.234Z,30.29
2023-05-19T05:54:49.356Z,30.35
2023-05-19T05:55:19.478Z,30.32
2023-05-19T05:55:49.484Z,30.41
2023-05-19T05:56:49.555Z,30.35
2023-05-19T05:57:19.553Z,30.36
2023-05-19T05:57:49.580Z,30.39
2023-05-19T05:58:19.695Z,30.40
2023-05-19T05:58:49.814Z,30.36
2023-05-19T05:59:19.938Z,30.32
2023-05-19T05:59:50.084Z,30.39
2023-05-19T06:00:20.057Z,30.46
2023-05-19T06:00:50.145Z,30.38
2023-05-19T06:01:20.232Z,30.50
2023-05-19T06:01:50.317Z,30.41
2023-05-19T06:02:20.440Z,30.40
2023-05-19T06:02:50.529Z,30.45
2023-05-19T06:03:20.589Z,30.41
2023-05-19T06:03:50.642Z,30.39
2023-05-19T06:04:20.634Z,30.47
2023-05-19T06:04:50.725Z,30.41
2023-05-19T06:05:20.830Z,30.47
2023-05-19T06:05:50.878Z,30.50
2023-05-19T06:06:20.869Z,30.47
2023-05-19T06:06:50.946Z,30.45
2023-05-19T06:07:21.037Z,30.51
2023-05-19T06:07:51.120Z,30.41
2023-05-19T06:08:21.196Z,30.47
2023-05-19T06:08:51.316Z,30.48
2023-05-19T06:09:21.395Z,30.45
2023-05-19T06:09:51.479Z,30.48
2023-05-19T06:10:21.580Z,30.48
2023-05-19T06:10:51.559Z,30.50
2023-05-19T06:11:21.664Z,30.45
2023-05-19T06:11:51.784Z,30.50
2023-05-19T06:12:21.776Z,30.48
2023-05-19T06:12:51.788Z,30.47
2023-05-19T06:13:21.908Z,30.52
2023-05-19T06:13:52.025Z,30.44
2023-05-19T06:14:22.042Z,30.44
2023-05-19T06:14:52.058Z,30.49
2023-05-19T06:15:22.034Z,30.46
2023-05-19T06:15:52.079Z,30.47
2023-05-19T06:16:22.111Z,30.50
2023-05-19T06:16:52.122Z,30.46
2023-05-19T06:17:22.131Z,30.47
2023-05-19T06:17:52.182Z,30.50
2023-05-19T06:18:22.208Z,30.48
2023-05-19T06:18:52.241Z,30.45
2023-05-19T06:19:22.369Z,30.49
2023-05-19T06:19:52.242Z,30.47
2023-05-19T06:20:22.385Z,30.47
2023-05-19T06:20:52.371Z,30.49
2023-05-19T06:21:22.484Z,30.46
2023-05-19T06:21:52.482Z,30.41
2023-05-19T06:22:22.595Z,30.52
2023-05-19T06:22:52.731Z,30.43
2023-05-19T06:23:22.733Z,30.46
2023-05-19T06:24:22.793Z,30.51
2023-05-19T06:24:52.924Z,30.45
2023-05-19T06:25:22.916Z,30.46
2023-05-19T06:26:22.981Z,30.43
2023-05-19T06:26:52.973Z,30.43
2023-05-19T06:27:53.063Z,30.39
2023-05-19T06:28:23.055Z,30.43
2023-05-19T06:29:23.143Z,30.45
2023-05-19T06:29:53.146Z,30.37
2023-05-19T06:30:23.282Z,30.35
2023-05-19T06:30:53.266Z,30.39
2023-05-19T06:31:23.280Z,30.42
2023-05-19T06:31:53.338Z,30.43
2023-05-19T06:32:23.423Z,30.35
2023-05-19T06:32:53.501Z,30.37
2023-05-19T06:33:23.468Z,30.34
2023-05-19T06:33:53.461Z,30.43
2023-05-19T06:34:53.584Z,30.34
2023-05-19T06:35:23.559Z,30.37
2023-05-19T06:36:23.622Z,30.37
2023-05-19T06:36:53.762Z,30.36
2023-05-19T06:37:23.766Z,30.31
2023-05-19T06:38:23.838Z,30.35
2023-05-19T06:38:53.831Z,30.35
2023-05-19T06:39:23.962Z,30.41
2023-05-19T06:39:53.979Z,30.44
2023-05-19T06:40:24.095Z,30.35
2023-05-19T06:40:54.101Z,30.38
2023-05-19T06:41:24.226Z,30.41
2023-05-19T06:41:54.227Z,30.33
2023-05-19T06:42:24.238Z,30.42
2023-05-19T06:42:54.344Z,30.33
2023-05-19T06:43:24.462Z,30.35
2023-05-19T06:43:54.454Z,30.38
2023-05-19T06:44:54.527Z,30.32
2023-05-19T06:45:24.523Z,30.36
2023-05-19T06:46:24.659Z,30.38
2023-05-19T06:46:54.730Z,30.31
2023-05-19T06:47:24.813Z,30.32
2023-05-19T06:47:54.851Z,30.32
2023-05-19T06:48:24.840Z,30.32
2023-05-19T06:48:54.841Z,30.35
2023-05-19T06:49:24.959Z,30.37
2023-05-19T06:49:55.251Z,30.32
2023-05-19T06:50:25.155Z,30.40
2023-05-19T06:50:55.141Z,30.34
2023-05-19T06:51:55.214Z,30.32
2023-05-19T06:52:25.217Z,30.35
2023-05-19T06:53:25.301Z,30.38
2023-05-19T06:53:55.296Z,30.37
2023-05-19T06:54:55.374Z,30.34
2023-05-19T06:55:25.493Z,30.38
2023-05-19T06:55:59.700Z,30.37
2023-05-19T06:56:25.573Z,30.31
2023-05-19T06:56:55.574Z,30.34
2023-05-19T06:57:55.630Z,30.35
2023-05-19T06:58:25.750Z,30.35
2023-05-19T06:58:55.862Z,30.28
2023-05-19T06:59:25.989Z,30.39
2023-05-19T06:59:56.101Z,30.37
2023-05-19T07:00:26.128Z,30.37
2023-05-19T07:00:56.228Z,30.39
2023-05-19T07:01:26.297Z,30.33
2023-05-19T07:01:56.406Z,30.32
2023-05-19T07:02:26.447Z,30.32
2023-05-19T07:02:56.506Z,30.31